sensor_id;sensor_type;location;lat;lon;timestamp;P1;durP1;ratioP1;P2;durP2;ratioP2
10825;SDS011;5466;55.898;14.094;2023-09-08T00:00:53;21.33;;;13.65;;
10825;SDS011;5466;55.898;14.094;2023-09-08T00:02:53;17.33;;;12.32;;
10825;SDS011;5466;55.898;14.094;2023-09-08T00:04:54;19.63;;;14.13;;
10825;SDS011;5466;55.898;14.094;2023-09-08T00:06:55;25.27;;;14.55;;
10825;SDS011;5466;55.898;14.094;2023-09-08T00:08:55;19.20;;;13.13;;
10825;SDS011;5466;55.898;14.094;2023-09-08T00:10:56;26.40;;;13.48;;
10825;SDS011;5466;55.898;14.094;2023-09-08T00:12:57;23.98;;;14.05;;
10825;SDS011;5466;55.898;14.094;2023-09-08T00:14:57;23.13;;;14.20;;
10825;SDS011;5466;55.898;14.094;2023-09-08T00:16:58;28.65;;;14.90;;
10825;SDS011;5466;55.898;14.094;2023-09-08T00:18:58;27.13;;;13.90;;
10825;SDS011;5466;55.898;14.094;2023-09-08T00:20:59;25.05;;;13.85;;
10825;SDS011;5466;55.898;14.094;2023-09-08T00:23:00;25.00;;;15.13;;
10825;SDS011;5466;55.898;14.094;2023-09-08T00:25:01;23.80;;;14.82;;
10825;SDS011;5466;55.898;14.094;2023-09-08T00:27:01;27.30;;;14.45;;
10825;SDS011;5466;55.898;14.094;2023-09-08T00:29:02;23.15;;;14.10;;
10825;SDS011;5466;55.898;14.094;2023-09-08T00:31:03;26.83;;;14.77;;
10825;SDS011;5466;55.898;14.094;2023-09-08T00:33:04;28.52;;;14.25;;
10825;SDS011;5466;55.898;14.094;2023-09-08T00:35:10;27.42;;;14.80;;
10825;SDS011;5466;55.898;14.094;2023-09-08T00:37:11;26.50;;;14.50;;
10825;SDS011;5466;55.898;14.094;2023-09-08T00:39:11;24.88;;;14.13;;
10825;SDS011;5466;55.898;14.094;2023-09-08T00:41:12;22.92;;;13.82;;
10825;SDS011;5466;55.898;14.094;2023-09-08T00:43:12;24.35;;;14.02;;
10825;SDS011;5466;55.898;14.094;2023-09-08T00:45:13;28.83;;;14.00;;
10825;SDS011;5466;55.898;14.094;2023-09-08T00:47:14;19.80;;;13.63;;
10825;SDS011;5466;55.898;14.094;2023-09-08T00:49:14;25.20;;;14.63;;
10825;SDS011;5466;55.898;14.094;2023-09-08T00:51:15;33.25;;;14.55;;
10825;SDS011;5466;55.898;14.094;2023-09-08T00:53:16;26.85;;;14.52;;
10825;SDS011;5466;55.898;14.094;2023-09-08T00:55:17;27.55;;;14.60;;
10825;SDS011;5466;55.898;14.094;2023-09-08T00:57:18;24.63;;;14.35;;
10825;SDS011;5466;55.898;14.094;2023-09-08T00:59:18;28.98;;;14.77;;
10825;SDS011;5466;55.898;14.094;2023-09-08T01:01:19;27.35;;;14.65;;
10825;SDS011;5466;55.898;14.094;2023-09-08T01:03:20;25.60;;;14.00;;
10825;SDS011;5466;55.898;14.094;2023-09-08T01:05:20;21.83;;;14.02;;
10825;SDS011;5466;55.898;14.094;2023-09-08T01:07:21;22.48;;;13.57;;
10825;SDS011;5466;55.898;14.094;2023-09-08T01:09:22;25.83;;;14.38;;
10825;SDS011;5466;55.898;14.094;2023-09-08T01:11:24;28.63;;;14.40;;
10825;SDS011;5466;55.898;14.094;2023-09-08T01:13:26;29.55;;;15.05;;
10825;SDS011;5466;55.898;14.094;2023-09-08T01:15:26;27.65;;;14.55;;
10825;SDS011;5466;55.898;14.094;2023-09-08T01:17:27;27.40;;;13.57;;
10825;SDS011;5466;55.898;14.094;2023-09-08T01:19:27;66.93;;;14.75;;
10825;SDS011;5466;55.898;14.094;2023-09-08T01:23:46;33.63;;;13.82;;
10825;SDS011;5466;55.898;14.094;2023-09-08T01:25:52;27.77;;;14.40;;
10825;SDS011;5466;55.898;14.094;2023-09-08T01:27:58;26.33;;;13.70;;
10825;SDS011;5466;55.898;14.094;2023-09-08T01:30:01;43.70;;;15.40;;
10825;SDS011;5466;55.898;14.094;2023-09-08T01:32:04;43.78;;;15.48;;
10825;SDS011;5466;55.898;14.094;2023-09-08T01:34:05;30.77;;;16.52;;
10825;SDS011;5466;55.898;14.094;2023-09-08T01:36:07;53.03;;;14.25;;
10825;SDS011;5466;55.898;14.094;2023-09-08T01:38:08;45.40;;;14.88;;
10825;SDS011;5466;55.898;14.094;2023-09-08T01:40:09;63.55;;;16.38;;
10825;SDS011;5466;55.898;14.094;2023-09-08T01:42:10;42.63;;;16.50;;
10825;SDS011;5466;55.898;14.094;2023-09-08T01:44:11;38.00;;;17.17;;
10825;SDS011;5466;55.898;14.094;2023-09-08T01:46:12;63.42;;;16.55;;
10825;SDS011;5466;55.898;14.094;2023-09-08T01:48:13;47.45;;;16.05;;
10825;SDS011;5466;55.898;14.094;2023-09-08T01:50:13;39.30;;;16.00;;
10825;SDS011;5466;55.898;14.094;2023-09-08T01:52:16;33.85;;;14.52;;
10825;SDS011;5466;55.898;14.094;2023-09-08T01:54:16;39.25;;;15.07;;
10825;SDS011;5466;55.898;14.094;2023-09-08T01:56:17;35.35;;;13.95;;
10825;SDS011;5466;55.898;14.094;2023-09-08T01:58:17;31.25;;;13.70;;
10825;SDS011;5466;55.898;14.094;2023-09-08T02:00:18;24.65;;;12.30;;
10825;SDS011;5466;55.898;14.094;2023-09-08T02:02:19;22.27;;;12.48;;
10825;SDS011;5466;55.898;14.094;2023-09-08T02:04:19;23.13;;;12.63;;
10825;SDS011;5466;55.898;14.094;2023-09-08T02:06:20;23.27;;;11.80;;
10825;SDS011;5466;55.898;14.094;2023-09-08T02:08:20;25.52;;;12.32;;
10825;SDS011;5466;55.898;14.094;2023-09-08T02:10:21;22.17;;;12.10;;
10825;SDS011;5466;55.898;14.094;2023-09-08T02:12:21;20.58;;;11.63;;
10825;SDS011;5466;55.898;14.094;2023-09-08T02:14:22;24.10;;;11.88;;
10825;SDS011;5466;55.898;14.094;2023-09-08T02:16:23;31.67;;;11.63;;
10825;SDS011;5466;55.898;14.094;2023-09-08T02:18:23;21.27;;;12.32;;
10825;SDS011;5466;55.898;14.094;2023-09-08T02:20:24;19.15;;;12.02;;
10825;SDS011;5466;55.898;14.094;2023-09-08T02:22:25;21.95;;;11.32;;
10825;SDS011;5466;55.898;14.094;2023-09-08T02:24:26;25.27;;;10.93;;
10825;SDS011;5466;55.898;14.094;2023-09-08T02:26:26;18.23;;;11.10;;
10825;SDS011;5466;55.898;14.094;2023-09-08T02:28:27;21.83;;;11.63;;
10825;SDS011;5466;55.898;14.094;2023-09-08T02:30:28;21.20;;;11.38;;
10825;SDS011;5466;55.898;14.094;2023-09-08T02:32:28;19.55;;;11.40;;
10825;SDS011;5466;55.898;14.094;2023-09-08T02:34:29;25.50;;;11.90;;
10825;SDS011;5466;55.898;14.094;2023-09-08T02:36:30;16.92;;;10.57;;
10825;SDS011;5466;55.898;14.094;2023-09-08T02:38:30;18.50;;;10.43;;
10825;SDS011;5466;55.898;14.094;2023-09-08T02:40:32;15.55;;;10.52;;
10825;SDS011;5466;55.898;14.094;2023-09-08T02:42:34;16.95;;;10.10;;
10825;SDS011;5466;55.898;14.094;2023-09-08T02:44:34;19.13;;;10.88;;
10825;SDS011;5466;55.898;14.094;2023-09-08T02:46:35;21.13;;;11.07;;
10825;SDS011;5466;55.898;14.094;2023-09-08T02:48:35;17.70;;;10.88;;
10825;SDS011;5466;55.898;14.094;2023-09-08T02:50:36;17.77;;;10.55;;
10825;SDS011;5466;55.898;14.094;2023-09-08T02:52:36;20.75;;;10.50;;
10825;SDS011;5466;55.898;14.094;2023-09-08T02:54:37;27.23;;;11.25;;
10825;SDS011;5466;55.898;14.094;2023-09-08T02:56:39;19.60;;;9.93;;
10825;SDS011;5466;55.898;14.094;2023-09-08T02:58:40;22.73;;;10.77;;
10825;SDS011;5466;55.898;14.094;2023-09-08T03:00:40;22.52;;;10.55;;
10825;SDS011;5466;55.898;14.094;2023-09-08T03:02:41;18.15;;;9.93;;
10825;SDS011;5466;55.898;14.094;2023-09-08T03:04:41;16.77;;;10.10;;
10825;SDS011;5466;55.898;14.094;2023-09-08T03:06:42;19.58;;;10.35;;
10825;SDS011;5466;55.898;14.094;2023-09-08T03:08:42;16.23;;;9.65;;
10825;SDS011;5466;55.898;14.094;2023-09-08T03:10:43;20.50;;;9.68;;
10825;SDS011;5466;55.898;14.094;2023-09-08T03:12:43;19.90;;;9.85;;
10825;SDS011;5466;55.898;14.094;2023-09-08T03:14:44;18.25;;;9.77;;
10825;SDS011;5466;55.898;14.094;2023-09-08T03:16:45;16.98;;;9.85;;
10825;SDS011;5466;55.898;14.094;2023-09-08T03:18:45;15.50;;;8.80;;
10825;SDS011;5466;55.898;14.094;2023-09-08T03:20:49;15.38;;;9.02;;
10825;SDS011;5466;55.898;14.094;2023-09-08T03:22:50;14.25;;;8.90;;
10825;SDS011;5466;55.898;14.094;2023-09-08T03:24:51;15.63;;;9.20;;
10825;SDS011;5466;55.898;14.094;2023-09-08T03:26:52;13.15;;;8.73;;
10825;SDS011;5466;55.898;14.094;2023-09-08T03:28:53;15.02;;;9.25;;
10825;SDS011;5466;55.898;14.094;2023-09-08T03:30:53;21.42;;;9.63;;
10825;SDS011;5466;55.898;14.094;2023-09-08T03:32:54;22.08;;;9.75;;
10825;SDS011;5466;55.898;14.094;2023-09-08T03:34:54;22.30;;;9.50;;
10825;SDS011;5466;55.898;14.094;2023-09-08T03:36:55;22.52;;;9.48;;
10825;SDS011;5466;55.898;14.094;2023-09-08T03:38:56;16.67;;;8.63;;
10825;SDS011;5466;55.898;14.094;2023-09-08T03:40:58;21.27;;;8.68;;
10825;SDS011;5466;55.898;14.094;2023-09-08T03:42:58;26.30;;;9.52;;
10825;SDS011;5466;55.898;14.094;2023-09-08T03:44:59;17.58;;;8.70;;
10825;SDS011;5466;55.898;14.094;2023-09-08T03:46:59;19.40;;;8.75;;
10825;SDS011;5466;55.898;14.094;2023-09-08T03:49:00;18.25;;;9.00;;
10825;SDS011;5466;55.898;14.094;2023-09-08T03:51:01;15.75;;;9.07;;
10825;SDS011;5466;55.898;14.094;2023-09-08T03:53:01;13.90;;;8.60;;
10825;SDS011;5466;55.898;14.094;2023-09-08T03:55:02;19.65;;;9.10;;
10825;SDS011;5466;55.898;14.094;2023-09-08T03:57:03;21.52;;;8.52;;
10825;SDS011;5466;55.898;14.094;2023-09-08T03:59:04;22.58;;;8.82;;
10825;SDS011;5466;55.898;14.094;2023-09-08T04:01:04;21.48;;;8.40;;
10825;SDS011;5466;55.898;14.094;2023-09-08T04:03:05;27.25;;;8.63;;
10825;SDS011;5466;55.898;14.094;2023-09-08T04:05:06;18.15;;;8.20;;
10825;SDS011;5466;55.898;14.094;2023-09-08T04:07:07;14.38;;;8.35;;
10825;SDS011;5466;55.898;14.094;2023-09-08T04:09:07;12.80;;;7.28;;
10825;SDS011;5466;55.898;14.094;2023-09-08T04:11:08;12.63;;;7.10;;
10825;SDS011;5466;55.898;14.094;2023-09-08T04:13:08;14.48;;;7.55;;
10825;SDS011;5466;55.898;14.094;2023-09-08T04:15:09;27.80;;;7.15;;
10825;SDS011;5466;55.898;14.094;2023-09-08T04:17:10;15.40;;;7.82;;
10825;SDS011;5466;55.898;14.094;2023-09-08T04:19:10;14.38;;;6.93;;
10825;SDS011;5466;55.898;14.094;2023-09-08T04:21:11;11.43;;;6.78;;
10825;SDS011;5466;55.898;14.094;2023-09-08T04:23:11;11.30;;;6.97;;
10825;SDS011;5466;55.898;14.094;2023-09-08T04:25:12;17.88;;;6.80;;
10825;SDS011;5466;55.898;14.094;2023-09-08T04:27:12;20.83;;;7.45;;
10825;SDS011;5466;55.898;14.094;2023-09-08T04:29:13;19.83;;;7.20;;
10825;SDS011;5466;55.898;14.094;2023-09-08T04:31:14;11.20;;;6.97;;
10825;SDS011;5466;55.898;14.094;2023-09-08T04:33:14;15.02;;;7.00;;
10825;SDS011;5466;55.898;14.094;2023-09-08T04:35:15;13.48;;;7.53;;
10825;SDS011;5466;55.898;14.094;2023-09-08T04:37:16;11.05;;;6.68;;
10825;SDS011;5466;55.898;14.094;2023-09-08T04:39:16;25.40;;;7.47;;
10825;SDS011;5466;55.898;14.094;2023-09-08T04:41:17;32.10;;;7.95;;
10825;SDS011;5466;55.898;14.094;2023-09-08T04:43:17;23.88;;;8.05;;
10825;SDS011;5466;55.898;14.094;2023-09-08T04:45:18;22.45;;;7.68;;
10825;SDS011;5466;55.898;14.094;2023-09-08T04:47:19;26.40;;;8.32;;
10825;SDS011;5466;55.898;14.094;2023-09-08T04:49:19;22.88;;;7.90;;
10825;SDS011;5466;55.898;14.094;2023-09-08T04:51:20;42.65;;;8.63;;
10825;SDS011;5466;55.898;14.094;2023-09-08T04:53:20;19.67;;;7.55;;
10825;SDS011;5466;55.898;14.094;2023-09-08T04:55:21;16.88;;;6.93;;
10825;SDS011;5466;55.898;14.094;2023-09-08T04:57:22;64.38;;;8.27;;
10825;SDS011;5466;55.898;14.094;2023-09-08T04:59:22;35.05;;;8.25;;
10825;SDS011;5466;55.898;14.094;2023-09-08T05:01:23;31.02;;;7.47;;
10825;SDS011;5466;55.898;14.094;2023-09-08T05:03:24;34.95;;;6.93;;
10825;SDS011;5466;55.898;14.094;2023-09-08T05:05:26;24.88;;;5.95;;
10825;SDS011;5466;55.898;14.094;2023-09-08T05:07:26;21.98;;;6.43;;
10825;SDS011;5466;55.898;14.094;2023-09-08T05:09:27;9.95;;;6.05;;
10825;SDS011;5466;55.898;14.094;2023-09-08T05:11:27;31.67;;;6.25;;
10825;SDS011;5466;55.898;14.094;2023-09-08T05:13:28;55.70;;;6.93;;
10825;SDS011;5466;55.898;14.094;2023-09-08T05:15:29;34.17;;;5.68;;
10825;SDS011;5466;55.898;14.094;2023-09-08T05:17:30;12.68;;;6.28;;
10825;SDS011;5466;55.898;14.094;2023-09-08T05:19:31;26.10;;;5.32;;
10825;SDS011;5466;55.898;14.094;2023-09-08T05:21:32;68.20;;;7.07;;
10825;SDS011;5466;55.898;14.094;2023-09-08T05:23:33;31.90;;;4.88;;
10825;SDS011;5466;55.898;14.094;2023-09-08T05:25:34;25.90;;;5.20;;
10825;SDS011;5466;55.898;14.094;2023-09-08T05:27:35;15.20;;;5.20;;
10825;SDS011;5466;55.898;14.094;2023-09-08T05:29:35;20.95;;;4.68;;
10825;SDS011;5466;55.898;14.094;2023-09-08T05:31:36;21.90;;;4.70;;
10825;SDS011;5466;55.898;14.094;2023-09-08T05:33:36;74.05;;;5.30;;
10825;SDS011;5466;55.898;14.094;2023-09-08T05:35:37;21.48;;;4.50;;
10825;SDS011;5466;55.898;14.094;2023-09-08T05:37:38;31.17;;;4.82;;
10825;SDS011;5466;55.898;14.094;2023-09-08T05:39:38;26.85;;;4.80;;
10825;SDS011;5466;55.898;14.094;2023-09-08T05:41:39;40.45;;;4.68;;
10825;SDS011;5466;55.898;14.094;2023-09-08T05:43:39;32.75;;;4.55;;
10825;SDS011;5466;55.898;14.094;2023-09-08T05:45:40;36.38;;;4.60;;
10825;SDS011;5466;55.898;14.094;2023-09-08T05:47:40;35.38;;;5.35;;
10825;SDS011;5466;55.898;14.094;2023-09-08T05:49:41;95.18;;;6.78;;
10825;SDS011;5466;55.898;14.094;2023-09-08T05:51:41;41.00;;;4.72;;
10825;SDS011;5466;55.898;14.094;2023-09-08T05:53:42;104.00;;;7.28;;
10825;SDS011;5466;55.898;14.094;2023-09-08T05:55:43;21.85;;;4.93;;
10825;SDS011;5466;55.898;14.094;2023-09-08T05:57:43;33.47;;;4.88;;
10825;SDS011;5466;55.898;14.094;2023-09-08T05:59:44;21.42;;;4.45;;
10825;SDS011;5466;55.898;14.094;2023-09-08T06:01:45;31.38;;;4.80;;
10825;SDS011;5466;55.898;14.094;2023-09-08T06:03:45;24.35;;;4.80;;
10825;SDS011;5466;55.898;14.094;2023-09-08T06:05:46;15.50;;;4.53;;
10825;SDS011;5466;55.898;14.094;2023-09-08T06:07:46;27.52;;;4.57;;
10825;SDS011;5466;55.898;14.094;2023-09-08T06:09:48;15.02;;;4.05;;
10825;SDS011;5466;55.898;14.094;2023-09-08T06:11:49;29.40;;;5.47;;
10825;SDS011;5466;55.898;14.094;2023-09-08T06:13:50;92.82;;;6.57;;
10825;SDS011;5466;55.898;14.094;2023-09-08T06:15:50;27.05;;;4.13;;
10825;SDS011;5466;55.898;14.094;2023-09-08T06:17:51;8.48;;;4.07;;
10825;SDS011;5466;55.898;14.094;2023-09-08T06:19:52;9.48;;;3.65;;
10825;SDS011;5466;55.898;14.094;2023-09-08T06:21:52;11.38;;;4.15;;
10825;SDS011;5466;55.898;14.094;2023-09-08T06:23:53;20.35;;;3.88;;
10825;SDS011;5466;55.898;14.094;2023-09-08T06:25:56;26.90;;;3.65;;
10825;SDS011;5466;55.898;14.094;2023-09-08T06:27:59;6.47;;;3.50;;
10825;SDS011;5466;55.898;14.094;2023-09-08T06:30:00;64.53;;;5.53;;
10825;SDS011;5466;55.898;14.094;2023-09-08T06:32:01;5.75;;;3.30;;
10825;SDS011;5466;55.898;14.094;2023-09-08T06:34:01;20.08;;;3.65;;
10825;SDS011;5466;55.898;14.094;2023-09-08T06:36:02;19.27;;;4.00;;
10825;SDS011;5466;55.898;14.094;2023-09-08T06:38:03;18.15;;;3.85;;
10825;SDS011;5466;55.898;14.094;2023-09-08T06:40:04;21.73;;;4.32;;
10825;SDS011;5466;55.898;14.094;2023-09-08T06:42:05;44.63;;;4.80;;
10825;SDS011;5466;55.898;14.094;2023-09-08T06:44:06;9.18;;;3.60;;
10825;SDS011;5466;55.898;14.094;2023-09-08T06:46:06;18.60;;;4.65;;
10825;SDS011;5466;55.898;14.094;2023-09-08T06:48:07;6.85;;;3.50;;
10825;SDS011;5466;55.898;14.094;2023-09-08T06:50:08;37.13;;;5.20;;
10825;SDS011;5466;55.898;14.094;2023-09-08T06:52:09;14.50;;;3.67;;
10825;SDS011;5466;55.898;14.094;2023-09-08T06:54:09;9.80;;;3.72;;
10825;SDS011;5466;55.898;14.094;2023-09-08T06:56:10;17.20;;;3.70;;
10825;SDS011;5466;55.898;14.094;2023-09-08T06:58:11;18.23;;;3.45;;
10825;SDS011;5466;55.898;14.094;2023-09-08T07:00:12;46.00;;;4.43;;
10825;SDS011;5466;55.898;14.094;2023-09-08T07:02:13;29.17;;;3.75;;
10825;SDS011;5466;55.898;14.094;2023-09-08T07:04:14;24.20;;;4.07;;
10825;SDS011;5466;55.898;14.094;2023-09-08T07:06:14;30.25;;;4.38;;
10825;SDS011;5466;55.898;14.094;2023-09-08T07:08:15;31.48;;;3.92;;
10825;SDS011;5466;55.898;14.094;2023-09-08T07:10:19;26.60;;;4.15;;
10825;SDS011;5466;55.898;14.094;2023-09-08T07:12:20;17.70;;;4.28;;
10825;SDS011;5466;55.898;14.094;2023-09-08T07:14:20;37.67;;;4.20;;
10825;SDS011;5466;55.898;14.094;2023-09-08T07:16:21;7.00;;;3.75;;
10825;SDS011;5466;55.898;14.094;2023-09-08T07:18:21;15.70;;;4.05;;
10825;SDS011;5466;55.898;14.094;2023-09-08T07:20:22;83.72;;;5.53;;
10825;SDS011;5466;55.898;14.094;2023-09-08T07:22:23;23.73;;;4.28;;
10825;SDS011;5466;55.898;14.094;2023-09-08T07:24:23;37.10;;;4.70;;
10825;SDS011;5466;55.898;14.094;2023-09-08T07:26:24;22.83;;;4.68;;
10825;SDS011;5466;55.898;14.094;2023-09-08T07:28:24;25.88;;;4.55;;
10825;SDS011;5466;55.898;14.094;2023-09-08T07:30:25;12.85;;;4.07;;
10825;SDS011;5466;55.898;14.094;2023-09-08T07:32:26;10.90;;;3.90;;
10825;SDS011;5466;55.898;14.094;2023-09-08T07:34:26;26.50;;;4.32;;
10825;SDS011;5466;55.898;14.094;2023-09-08T07:36:27;5.13;;;4.00;;
10825;SDS011;5466;55.898;14.094;2023-09-08T07:38:27;11.18;;;4.18;;
10825;SDS011;5466;55.898;14.094;2023-09-08T07:40:28;11.65;;;4.20;;
10825;SDS011;5466;55.898;14.094;2023-09-08T07:42:28;5.00;;;4.40;;
10825;SDS011;5466;55.898;14.094;2023-09-08T07:44:29;5.05;;;4.53;;
10825;SDS011;5466;55.898;14.094;2023-09-08T07:46:30;12.18;;;4.50;;
10825;SDS011;5466;55.898;14.094;2023-09-08T07:48:30;4.82;;;3.90;;
10825;SDS011;5466;55.898;14.094;2023-09-08T07:50:32;4.43;;;4.03;;
10825;SDS011;5466;55.898;14.094;2023-09-08T07:52:32;9.70;;;4.40;;
10825;SDS011;5466;55.898;14.094;2023-09-08T07:54:33;6.80;;;4.40;;
10825;SDS011;5466;55.898;14.094;2023-09-08T07:56:34;6.55;;;4.60;;
10825;SDS011;5466;55.898;14.094;2023-09-08T07:58:34;37.00;;;5.13;;
10825;SDS011;5466;55.898;14.094;2023-09-08T08:00:36;15.13;;;4.85;;
10825;SDS011;5466;55.898;14.094;2023-09-08T08:02:37;5.80;;;4.32;;
10825;SDS011;5466;55.898;14.094;2023-09-08T08:04:41;4.72;;;4.30;;
10825;SDS011;5466;55.898;14.094;2023-09-08T08:06:42;4.28;;;3.92;;
10825;SDS011;5466;55.898;14.094;2023-09-08T08:08:43;3.92;;;3.63;;
10825;SDS011;5466;55.898;14.094;2023-09-08T08:10:43;11.00;;;4.88;;
10825;SDS011;5466;55.898;14.094;2023-09-08T08:12:44;5.55;;;4.78;;
10825;SDS011;5466;55.898;14.094;2023-09-08T08:14:45;9.82;;;5.18;;
10825;SDS011;5466;55.898;14.094;2023-09-08T08:16:45;14.25;;;5.22;;
10825;SDS011;5466;55.898;14.094;2023-09-08T08:18:46;10.13;;;5.45;;
10825;SDS011;5466;55.898;14.094;2023-09-08T08:20:47;20.40;;;5.47;;
10825;SDS011;5466;55.898;14.094;2023-09-08T08:22:47;13.60;;;6.53;;
10825;SDS011;5466;55.898;14.094;2023-09-08T08:24:48;5.85;;;5.25;;
10825;SDS011;5466;55.898;14.094;2023-09-08T08:26:48;6.78;;;5.03;;
10825;SDS011;5466;55.898;14.094;2023-09-08T08:28:51;6.18;;;5.55;;
10825;SDS011;5466;55.898;14.094;2023-09-08T08:30:52;6.15;;;5.60;;
10825;SDS011;5466;55.898;14.094;2023-09-08T08:32:53;5.75;;;5.25;;
10825;SDS011;5466;55.898;14.094;2023-09-08T08:34:53;5.57;;;5.07;;
10825;SDS011;5466;55.898;14.094;2023-09-08T08:36:54;6.10;;;5.60;;
10825;SDS011;5466;55.898;14.094;2023-09-08T08:38:55;7.18;;;5.25;;
10825;SDS011;5466;55.898;14.094;2023-09-08T08:41:01;5.25;;;4.85;;
10825;SDS011;5466;55.898;14.094;2023-09-08T08:43:03;6.60;;;5.35;;
10825;SDS011;5466;55.898;14.094;2023-09-08T08:45:04;11.48;;;5.20;;
10825;SDS011;5466;55.898;14.094;2023-09-08T08:47:09;5.68;;;5.18;;
10825;SDS011;5466;55.898;14.094;2023-09-08T08:49:10;7.05;;;5.65;;
10825;SDS011;5466;55.898;14.094;2023-09-08T08:51:12;11.50;;;5.13;;
10825;SDS011;5466;55.898;14.094;2023-09-08T08:53:14;5.68;;;5.18;;
10825;SDS011;5466;55.898;14.094;2023-09-08T08:55:17;5.60;;;5.10;;
10825;SDS011;5466;55.898;14.094;2023-09-08T08:57:17;6.47;;;5.85;;
10825;SDS011;5466;55.898;14.094;2023-09-08T08:59:19;9.43;;;5.32;;
10825;SDS011;5466;55.898;14.094;2023-09-08T09:01:20;6.20;;;5.60;;
10825;SDS011;5466;55.898;14.094;2023-09-08T09:03:21;16.63;;;7.30;;
10825;SDS011;5466;55.898;14.094;2023-09-08T09:05:24;5.78;;;5.28;;
10825;SDS011;5466;55.898;14.094;2023-09-08T09:07:25;5.60;;;5.13;;
10825;SDS011;5466;55.898;14.094;2023-09-08T09:09:27;6.32;;;5.72;;
10825;SDS011;5466;55.898;14.094;2023-09-08T09:11:28;5.93;;;5.35;;
10825;SDS011;5466;55.898;14.094;2023-09-08T09:13:30;4.93;;;4.53;;
10825;SDS011;5466;55.898;14.094;2023-09-08T09:15:31;5.75;;;5.25;;
10825;SDS011;5466;55.898;14.094;2023-09-08T09:17:35;5.07;;;4.68;;
10825;SDS011;5466;55.898;14.094;2023-09-08T09:19:36;4.60;;;4.20;;
10825;SDS011;5466;55.898;14.094;2023-09-08T09:23:47;5.35;;;4.85;;
10825;SDS011;5466;55.898;14.094;2023-09-08T09:25:48;5.78;;;5.22;;
10825;SDS011;5466;55.898;14.094;2023-09-08T09:27:50;27.95;;;7.30;;
10825;SDS011;5466;55.898;14.094;2023-09-08T09:30:08;4.70;;;4.30;;
10825;SDS011;5466;55.898;14.094;2023-09-08T09:32:09;4.50;;;4.10;;
10825;SDS011;5466;55.898;14.094;2023-09-08T09:34:10;5.07;;;4.57;;
10825;SDS011;5466;55.898;14.094;2023-09-08T09:36:19;4.72;;;4.32;;
10825;SDS011;5466;55.898;14.094;2023-09-08T09:38:20;5.82;;;4.40;;
10825;SDS011;5466;55.898;14.094;2023-09-08T09:40:22;4.50;;;4.10;;
10825;SDS011;5466;55.898;14.094;2023-09-08T09:42:22;4.93;;;4.40;;
10825;SDS011;5466;55.898;14.094;2023-09-08T09:44:23;4.60;;;4.20;;
10825;SDS011;5466;55.898;14.094;2023-09-08T09:46:27;3.90;;;3.60;;
10825;SDS011;5466;55.898;14.094;2023-09-08T09:48:28;5.03;;;4.57;;
10825;SDS011;5466;55.898;14.094;2023-09-08T09:52:31;4.60;;;4.20;;
10825;SDS011;5466;55.898;14.094;2023-09-08T09:54:31;4.88;;;4.15;;
10825;SDS011;5466;55.898;14.094;2023-09-08T09:56:32;5.65;;;5.10;;
10825;SDS011;5466;55.898;14.094;2023-09-08T09:58:34;4.90;;;4.50;;
10825;SDS011;5466;55.898;14.094;2023-09-08T10:00:35;5.00;;;4.53;;
10825;SDS011;5466;55.898;14.094;2023-09-08T10:02:37;4.25;;;3.40;;
10825;SDS011;5466;55.898;14.094;2023-09-08T10:04:38;4.15;;;3.85;;
10825;SDS011;5466;55.898;14.094;2023-09-08T10:06:40;4.75;;;4.00;;
10825;SDS011;5466;55.898;14.094;2023-09-08T10:08:42;4.38;;;4.03;;
10825;SDS011;5466;55.898;14.094;2023-09-08T10:10:44;4.10;;;3.80;;
10825;SDS011;5466;55.898;14.094;2023-09-08T10:12:49;5.38;;;3.75;;
10825;SDS011;5466;55.898;14.094;2023-09-08T10:14:52;3.97;;;3.67;;
10825;SDS011;5466;55.898;14.094;2023-09-08T10:16:56;3.80;;;3.50;;
10825;SDS011;5466;55.898;14.094;2023-09-08T10:19:00;4.22;;;3.83;;
10825;SDS011;5466;55.898;14.094;2023-09-08T10:21:06;3.75;;;3.45;;
10825;SDS011;5466;55.898;14.094;2023-09-08T10:23:31;4.88;;;4.30;;
10825;SDS011;5466;55.898;14.094;2023-09-08T10:25:41;5.85;;;3.95;;
10825;SDS011;5466;55.898;14.094;2023-09-08T10:27:44;6.20;;;4.93;;
10825;SDS011;5466;55.898;14.094;2023-09-08T10:29:44;5.32;;;4.80;;
10825;SDS011;5466;55.898;14.094;2023-09-08T10:31:46;6.15;;;5.63;;
10825;SDS011;5466;55.898;14.094;2023-09-08T10:33:47;5.80;;;5.30;;
10825;SDS011;5466;55.898;14.094;2023-09-08T10:35:48;5.53;;;5.03;;
10825;SDS011;5466;55.898;14.094;2023-09-08T10:37:48;7.00;;;4.47;;
10825;SDS011;5466;55.898;14.094;2023-09-08T10:39:49;6.50;;;5.07;;
10825;SDS011;5466;55.898;14.094;2023-09-08T10:41:50;5.40;;;4.72;;
10825;SDS011;5466;55.898;14.094;2023-09-08T10:44:03;5.72;;;5.20;;
10825;SDS011;5466;55.898;14.094;2023-09-08T10:46:10;5.32;;;4.65;;
10825;SDS011;5466;55.898;14.094;2023-09-08T10:48:21;5.20;;;4.80;;
10825;SDS011;5466;55.898;14.094;2023-09-08T10:50:32;5.75;;;4.55;;
10825;SDS011;5466;55.898;14.094;2023-09-08T10:52:34;4.65;;;4.25;;
10825;SDS011;5466;55.898;14.094;2023-09-08T10:54:45;4.35;;;4.00;;
10825;SDS011;5466;55.898;14.094;2023-09-08T10:56:55;4.80;;;4.40;;
10825;SDS011;5466;55.898;14.094;2023-09-08T10:58:58;4.53;;;4.13;;
10825;SDS011;5466;55.898;14.094;2023-09-08T11:01:00;4.50;;;4.10;;
10825;SDS011;5466;55.898;14.094;2023-09-08T11:03:02;4.63;;;3.70;;
10825;SDS011;5466;55.898;14.094;2023-09-08T11:05:06;4.00;;;3.70;;
10825;SDS011;5466;55.898;14.094;2023-09-08T11:07:08;5.65;;;3.83;;
10825;SDS011;5466;55.898;14.094;2023-09-08T11:09:10;5.88;;;4.07;;
10825;SDS011;5466;55.898;14.094;2023-09-08T11:11:10;3.47;;;3.17;;
10825;SDS011;5466;55.898;14.094;2023-09-08T11:13:15;4.65;;;3.45;;
10825;SDS011;5466;55.898;14.094;2023-09-08T11:15:16;4.72;;;3.75;;
10825;SDS011;5466;55.898;14.094;2023-09-08T11:17:16;3.67;;;3.38;;
10825;SDS011;5466;55.898;14.094;2023-09-08T11:19:17;3.45;;;3.15;;
10825;SDS011;5466;55.898;14.094;2023-09-08T11:21:17;3.78;;;3.47;;
10825;SDS011;5466;55.898;14.094;2023-09-08T11:23:18;4.22;;;3.40;;
10825;SDS011;5466;55.898;14.094;2023-09-08T11:25:20;4.20;;;3.47;;
10825;SDS011;5466;55.898;14.094;2023-09-08T11:27:20;3.97;;;3.60;;
10825;SDS011;5466;55.898;14.094;2023-09-08T11:29:21;3.50;;;3.20;;
10825;SDS011;5466;55.898;14.094;2023-09-08T11:31:23;3.78;;;3.47;;
10825;SDS011;5466;55.898;14.094;2023-09-08T11:33:23;4.20;;;3.80;;
10825;SDS011;5466;55.898;14.094;2023-09-08T11:35:26;4.22;;;3.80;;
10825;SDS011;5466;55.898;14.094;2023-09-08T11:37:27;4.07;;;3.67;;
10825;SDS011;5466;55.898;14.094;2023-09-08T11:39:27;4.05;;;3.72;;
10825;SDS011;5466;55.898;14.094;2023-09-08T11:41:28;4.53;;;3.40;;
10825;SDS011;5466;55.898;14.094;2023-09-08T11:43:29;3.88;;;3.58;;
10825;SDS011;5466;55.898;14.094;2023-09-08T11:45:35;3.80;;;3.50;;
10825;SDS011;5466;55.898;14.094;2023-09-08T11:47:37;3.75;;;3.45;;
10825;SDS011;5466;55.898;14.094;2023-09-08T11:49:42;4.03;;;3.42;;
10825;SDS011;5466;55.898;14.094;2023-09-08T11:51:44;3.85;;;3.55;;
10825;SDS011;5466;55.898;14.094;2023-09-08T11:53:45;4.70;;;3.38;;
10825;SDS011;5466;55.898;14.094;2023-09-08T11:55:46;4.80;;;3.20;;
10825;SDS011;5466;55.898;14.094;2023-09-08T11:57:53;3.92;;;3.50;;
10825;SDS011;5466;55.898;14.094;2023-09-08T11:59:57;5.50;;;3.53;;
10825;SDS011;5466;55.898;14.094;2023-09-08T12:02:00;4.47;;;3.85;;
10825;SDS011;5466;55.898;14.094;2023-09-08T12:04:01;3.88;;;3.47;;
10825;SDS011;5466;55.898;14.094;2023-09-08T12:06:01;3.97;;;3.20;;
10825;SDS011;5466;55.898;14.094;2023-09-08T12:08:03;3.75;;;3.40;;